EGEC/CAL METAR and TAF weather

Enter ICAO airport designator
Station Type Date Time Source
EGEC METAR 2022/11/30 17:20 UTC NOAA

EGEC 301720Z 15013G23KT 9999 BKN045 09/07 Q1023


Station Type Date Time Source
EGEC Decoded METAR 2022/11/30 17:20 UTC NOAA

Campbeltown, United Kingdom (EGEC) 55-26-14N 005-41-11W
Nov 30, 2022 - 12:20 PM EST / 2022.11.30 1720 UTC
Wind: from the SSE (150 degrees) at 15 MPH (13 KT) gusting to 26 MPH (23 KT):0
Visibility: greater than 7 mile(s):0
Sky conditions: mostly cloudy
Temperature: 48 F (9 C)
Dew Point: 44 F (7 C)
Relative Humidity: 87%
Pressure (altimeter): 30.21 in. Hg (1023 hPa)
ob: EGEC 301720Z 15013G23KT 9999 BKN045 09/07 Q1023
cycle: 17

Station Type Date Time Source
EGEC TAF UTC NOAA

Error!

Example: see airport list